Time;durP1;ratioP1;P1;durP2;ratioP2;P2;SDS_P1;SDS_P2;PMS_P1;PMS_P2;Temp;Humidity;BMP_temperature;BMP_pressure;BME280_temperature;BME280_humidity;BME280_pressure;Samples;Min_cycle;Max_cycle;Signal;HPM_P1;HPM_P2
2022/05/24 00:00:43;;;;;;;5.75;3.15;;;;;;;17.09;60.41;99151.22;2950342;80;21054;-83
2022/05/24 00:04:46;;;;;;;3.37;2.50;;;;;;;17.08;60.61;99156.28;2934025;79;21117;-83
2022/05/24 00:08:47;;;;;;;7.15;2.58;;;;;;;17.05;60.45;99144.09;2941271;80;21173;-83
2022/05/24 00:12:48;;;;;;;5.25;2.83;;;;;;;16.98;60.81;99139.13;2928045;80;21870;-83
2022/05/24 00:16:49;;;;;;;3.30;2.27;;;;;;;16.99;60.90;99121.52;2941952;79;20967;-83
2022/05/24 00:20:55;;;;;;;3.83;2.30;;;;;;;16.95;61.17;99116.70;2941397;80;21602;-83
2022/05/24 00:25:01;;;;;;;8.18;2.55;;;;;;;16.89;61.48;99114.80;2966736;80;20979;-82
2022/05/24 00:28:59;;;;;;;5.25;2.87;;;;;;;16.91;61.38;99112.25;2965555;80;20995;-82
2022/05/24 00:33:00;;;;;;;4.45;2.40;;;;;;;16.87;61.55;99100.75;2966751;79;21573;-82
2022/05/24 00:37:02;;;;;;;3.37;2.67;;;;;;;16.83;61.74;99076.98;2965839;79;20999;-82
2022/05/24 00:41:26;;;;;;;4.28;2.15;;;;;;;16.91;61.68;99067.09;2966391;79;21054;-82
2022/05/24 00:45:35;;;;;;;4.75;2.65;;;;;;;16.92;61.86;99051.30;2966152;79;21018;-82
2022/05/24 00:49:54;;;;;;;4.78;3.05;;;;;;;16.85;62.18;99055.28;2960577;79;21056;-81
2022/05/24 00:53:55;;;;;;;3.50;2.40;;;;;;;16.84;62.39;99054.96;2957547;80;21030;-82
2022/05/24 00:58:24;;;;;;;3.10;2.60;;;;;;;16.83;62.29;99035.84;2947610;80;20994;-82
2022/05/24 01:02:25;;;;;;;3.47;2.65;;;;;;;16.81;62.38;99013.73;2935565;80;21029;-82
2022/05/24 01:06:27;;;;;;;5.67;3.37;;;;;;;16.72;62.86;99018.97;2923422;80;20974;-82
2022/05/24 01:10:39;;;;;;;4.92;2.65;;;;;;;16.62;63.31;99059.05;2963936;80;20944;-82
2022/05/24 01:14:41;;;;;;;6.87;3.65;;;;;;;16.63;63.45;99071.45;2956433;80;21029;-81
2022/05/24 01:18:43;;;;;;;5.62;3.40;;;;;;;16.61;63.73;99069.48;2965900;79;21519;-82
2022/05/24 01:23:09;;;;;;;4.72;2.83;;;;;;;16.62;63.85;99064.95;2900837;80;21054;-82
2022/05/24 01:27:11;;;;;;;6.53;2.60;;;;;;;16.53;64.31;99054.88;2864171;83;21499;-82
2022/05/24 01:31:13;;;;;;;6.55;3.47;;;;;;;16.55;64.50;99050.95;2959350;80;21456;-82
2022/05/24 01:39:40;;;;;;;4.87;4.28;;;;;;;16.47;65.19;99056.47;2943061;79;21881;-82
2022/05/24 01:43:43;;;;;;;4.87;3.98;;;;;;;16.46;65.03;99052.62;2940560;79;21050;-82
2022/05/24 01:47:47;;;;;;;5.33;3.47;;;;;;;16.41;65.30;99061.28;2923123;79;21572;-83
2022/05/24 01:52:16;;;;;;;4.40;2.87;;;;;;;16.32;65.67;99058.41;2854700;81;21017;-82
2022/05/24 01:56:23;;;;;;;5.05;3.27;;;;;;;16.28;65.95;99055.27;2801738;83;21089;-83
2022/05/24 02:00:24;;;;;;;3.65;3.22;;;;;;;16.24;66.08;99054.00;2953522;80;20991;-82
2022/05/24 02:04:28;;;;;;;5.10;3.90;;;;;;;16.23;66.23;99054.53;2928156;79;21041;-82
2022/05/24 02:08:29;;;;;;;9.50;4.37;;;;;;;16.22;66.28;99049.34;2924696;79;21018;-82
2022/05/24 02:12:41;;;;;;;7.15;3.90;;;;;;;16.21;66.54;99049.03;2949122;79;20999;-82
2022/05/24 02:16:47;;;;;;;5.45;3.22;;;;;;;16.24;66.31;99040.59;2950291;79;21487;-81
2022/05/24 02:20:49;;;;;;;3.15;2.67;;;;;;;16.22;66.54;99050.19;2893002;80;21046;-82
2022/05/24 02:25:04;;;;;;;3.87;3.08;;;;;;;16.22;66.53;99039.95;2877709;81;21061;-82
2022/05/24 02:29:09;;;;;;;4.35;3.00;;;;;;;16.18;67.01;99039.50;2908643;81;21419;-82
2022/05/24 02:33:08;;;;;;;5.33;2.90;;;;;;;16.10;67.54;99042.33;2910570;81;21074;-81
2022/05/24 02:37:10;;;;;;;3.47;2.75;;;;;;;16.05;67.88;99013.40;2887504;81;21061;-82
2022/05/24 02:41:29;;;;;;;8.95;3.10;;;;;;;16.03;67.74;99006.05;2884801;81;21013;-82
2022/05/24 02:45:31;;;;;;;4.35;3.45;;;;;;;15.98;68.56;99000.45;2881008;81;21013;-82
2022/05/24 02:49:32;;;;;;;4.58;3.40;;;;;;;15.98;68.39;99000.45;2888640;81;21481;-83
2022/05/24 02:53:33;;;;;;;4.12;2.85;;;;;;;15.96;68.77;98985.06;2910429;80;21010;-81
2022/05/24 02:57:35;;;;;;;6.58;2.92;;;;;;;15.99;68.77;98986.02;2884376;81;21592;-83
2022/05/24 03:01:36;;;;;;;5.12;3.40;;;;;;;16.06;68.64;98989.58;2910080;80;21014;-82
2022/05/24 03:05:38;;;;;;;4.35;3.55;;;;;;;16.11;68.84;98992.53;2908800;81;21707;-81
2022/05/24 03:09:39;;;;;;;3.72;2.80;;;;;;;16.15;68.74;98994.81;2899703;81;20982;-83
2022/05/24 03:18:01;;;;;;;7.05;2.98;;;;;;;16.15;69.33;99001.52;2913159;79;21550;-82
2022/05/24 03:22:02;;;;;;;5.65;3.20;;;;;;;16.10;70.03;99012.30;2958592;80;21011;-82
2022/05/24 03:26:04;;;;;;;4.70;3.05;;;;;;;16.12;70.00;99019.67;2938728;77;21002;-83
2022/05/24 03:30:07;;;;;;;4.25;3.65;;;;;;;16.18;70.13;99018.57;2948259;79;21528;-82
2022/05/24 03:34:09;;;;;;;5.37;3.37;;;;;;;16.16;70.74;99023.30;2902745;80;21555;-83
2022/05/24 03:38:10;;;;;;;6.62;3.83;;;;;;;16.11;70.90;99016.67;2923250;80;20984;-84
2022/05/24 03:42:13;;;;;;;3.70;3.20;;;;;;;16.23;70.56;99023.68;2958301;78;21475;-84
2022/05/24 03:46:14;;;;;;;3.98;2.52;;;;;;;16.36;70.31;99021.61;2959748;78;21003;-83
2022/05/24 03:50:18;;;;;;;4.53;3.47;;;;;;;16.48;70.13;99022.39;2955413;79;21003;-83
2022/05/24 03:54:20;;;;;;;3.02;2.72;;;;;;;16.51;70.56;99021.50;2966935;80;21172;-84
2022/05/24 03:58:22;;;;;;;8.20;3.25;;;;;;;16.53;70.89;99019.98;2959092;79;20979;-83
2022/05/24 04:02:24;;;;;;;6.05;3.27;;;;;;;16.51;71.50;99016.14;2961797;78;20975;-84
2022/05/24 04:06:26;;;;;;;3.20;2.72;;;;;;;16.50;72.08;99024.37;2958317;78;21161;-84
2022/05/24 04:10:30;;;;;;;12.68;4.85;;;;;;;16.57;71.91;99026.61;2942191;78;21038;-84
2022/05/24 04:14:33;;;;;;;8.10;3.92;;;;;;;16.60;72.16;99031.58;2948395;78;21034;-85
2022/05/24 04:18:36;;;;;;;9.45;3.80;;;;;;;16.58;74.51;99035.47;2944729;78;21208;-83
2022/05/24 04:22:37;;;;;;;3.65;3.12;;;;;;;16.53;75.40;99044.13;2920404;80;21050;-84
2022/05/24 04:26:40;;;;;;;9.30;2.90;;;;;;;16.47;76.41;99052.95;2924820;80;21555;-84
2022/05/24 04:30:42;;;;;;;10.23;4.65;;;;;;;16.46;76.58;99044.58;2918701;79;21019;-84
2022/05/24 04:34:43;;;;;;;7.25;5.47;;;;;;;16.47;76.18;99050.27;2840123;81;21020;-84
2022/05/24 04:38:45;;;;;;;4.28;3.15;;;;;;;16.59;76.56;99051.39;2900499;80;21139;-84
2022/05/24 04:42:46;;;;;;;3.83;3.30;;;;;;;16.67;76.19;99053.92;2915698;80;20980;-82
2022/05/24 04:51:07;;;;;;;5.12;4.33;;;;;;;16.78;75.92;99059.78;2877393;81;21578;-84
2022/05/24 04:55:12;;;;;;;8.13;4.55;;;;;;;16.83;76.00;99055.98;2889314;81;21012;-84
2022/05/24 04:59:16;;;;;;;6.03;3.27;;;;;;;16.87;76.27;99056.44;2908806;80;21117;-84
2022/05/24 05:03:20;;;;;;;4.78;3.65;;;;;;;16.87;76.33;99055.91;2857752;81;21615;-84
2022/05/24 05:07:22;;;;;;;4.92;4.15;;;;;;;16.99;77.66;99054.87;2941456;79;21570;-83
2022/05/24 05:11:24;;;;;;;9.05;4.53;;;;;;;17.46;76.67;99053.74;2873414;82;21035;-84
2022/05/24 05:15:25;;;;;;;5.47;4.40;;;;;;;18.14;74.72;99062.83;2914106;80;21027;-84
2022/05/24 05:19:28;;;;;;;4.58;4.17;;;;;;;18.62;71.86;99066.38;2880637;82;21106;-84
2022/05/24 05:23:30;;;;;;;6.10;3.92;;;;;;;18.98;71.05;99057.00;2885642;80;21086;-85
2022/05/24 05:27:31;;;;;;;5.15;3.25;;;;;;;19.95;71.00;99048.63;2910243;81;21507;-85
2022/05/24 05:31:32;;;;;;;7.25;3.70;;;;;;;20.96;68.04;99048.61;2912443;80;21054;-85
2022/05/24 05:35:34;;;;;;;5.55;3.62;;;;;;;21.04;64.83;99046.67;2904340;80;21057;-84
2022/05/24 05:39:36;;;;;;;8.20;4.25;;;;;;;20.60;65.18;99051.53;2894838;80;21144;-84
2022/05/24 05:43:37;;;;;;;5.75;3.85;;;;;;;20.21;66.34;99056.22;2935033;80;21046;-84
2022/05/24 05:47:39;;;;;;;3.25;2.95;;;;;;;19.99;67.68;99055.23;2950059;80;21038;-84
2022/05/24 05:51:40;;;;;;;6.65;4.15;;;;;;;19.86;68.71;99063.41;2967106;79;20990;-84
2022/05/24 05:55:42;;;;;;;8.03;4.15;;;;;;;19.64;69.78;99059.66;2967011;79;21011;-84
2022/05/24 05:59:43;;;;;;;6.92;3.58;;;;;;;19.39;70.82;99067.14;2920170;79;21062;-84
2022/05/24 06:03:45;;;;;;;40.85;9.05;;;;;;;19.25;72.44;99077.96;2916194;80;22213;-84
2022/05/24 06:07:46;;;;;;;9.65;3.50;;;;;;;19.24;72.96;99073.61;2844915;82;21027;-85
2022/05/24 06:11:47;;;;;;;4.78;4.15;;;;;;;19.29;73.47;99072.98;2913847;80;21032;-84
2022/05/24 06:15:51;;;;;;;5.20;4.25;;;;;;;19.55;73.73;99072.56;2918430;81;21090;-84
2022/05/24 06:19:53;;;;;;;4.33;2.92;;;;;;;20.22;74.07;99068.16;2917626;80;21091;-84
2022/05/24 06:23:54;;;;;;;4.72;3.30;;;;;;;21.18;72.58;99064.37;2935985;80;21023;-84
2022/05/24 06:27:56;;;;;;;4.08;3.02;;;;;;;22.06;68.14;99060.04;2937595;80;21545;-84
2022/05/24 06:31:58;;;;;;;3.42;2.60;;;;;;;22.58;65.35;99072.14;2961850;79;21413;-85
2022/05/24 06:35:59;;;;;;;6.80;3.42;;;;;;;22.89;64.76;99074.22;2887191;80;21641;-82
2022/05/24 06:40:01;;;;;;;5.50;3.62;;;;;;;23.10;64.67;99080.09;2915214;79;20983;-82
2022/05/24 06:44:03;;;;;;;4.58;2.67;;;;;;;23.20;64.47;99085.75;2961102;80;21542;-83
2022/05/24 06:48:11;;;;;;;3.75;2.98;;;;;;;23.19;62.69;99088.17;2966031;79;21471;-82
2022/05/24 06:52:15;;;;;;;4.10;2.30;;;;;;;23.08;61.69;99088.45;2960105;80;20991;-82
2022/05/24 06:56:17;;;;;;;3.45;2.45;;;;;;;22.99;61.80;99086.34;2942240;79;21093;-82
2022/05/24 07:04:39;;;;;;;31.42;8.60;;;;;;;22.85;62.50;99093.37;2961853;80;21542;-82
2022/05/24 07:08:44;;;;;;;4.70;2.85;;;;;;;22.88;63.29;99092.91;2939842;80;20991;-83
2022/05/24 07:12:46;;;;;;;3.42;2.27;;;;;;;23.00;62.79;99098.31;2879990;81;21046;-82
2022/05/24 07:16:47;;;;;;;5.75;2.98;;;;;;;23.19;62.88;99105.80;2874979;82;21109;-83
2022/05/24 07:20:49;;;;;;;6.10;2.95;;;;;;;23.46;62.56;99097.15;2869536;82;21075;-82
2022/05/24 07:24:50;;;;;;;2.62;2.33;;;;;;;23.56;61.72;99106.03;2882898;82;21071;-82
2022/05/24 07:28:52;;;;;;;5.58;2.80;;;;;;;23.68;62.87;99105.99;2841177;82;21543;-82
2022/05/24 07:32:53;;;;;;;5.62;3.15;;;;;;;23.79;62.15;99102.94;2957338;80;21030;-82
2022/05/24 07:36:54;;;;;;;4.05;3.33;;;;;;;23.80;63.01;99105.94;2889083;81;20975;-82
2022/05/24 07:49:37;;;;;;;4.05;3.35;;;;;;;24.21;63.78;99099.13;2890650;81;21062;-82
2022/05/24 07:53:38;;;;;;;3.10;2.80;;;;;;;24.41;63.04;99093.74;2908240;80;20995;-82
2022/05/24 07:57:41;;;;;;;5.20;3.08;;;;;;;24.75;63.64;99103.23;2893133;81;30704;-82
2022/05/24 08:01:42;;;;;;;4.53;3.15;;;;;;;25.12;62.39;99102.70;2903128;81;21074;-82
2022/05/24 08:05:44;;;;;;;6.65;2.22;;;;;;;25.48;61.59;99104.56;2899765;80;20931;-82
2022/05/24 08:09:46;;;;;;;2.72;2.00;;;;;;;25.69;61.88;99109.44;2886165;80;21066;-82
2022/05/24 08:13:47;;;;;;;2.47;1.52;;;;;;;25.74;61.05;99110.85;2893469;81;21010;-82
2022/05/24 08:17:50;;;;;;;2.72;1.62;;;;;;;25.74;61.04;99114.38;2915892;81;20974;-83
2022/05/24 08:21:52;;;;;;;11.43;2.17;;;;;;;25.72;60.56;99120.62;2919266;80;21740;-82
2022/05/24 08:25:54;;;;;;;2.12;1.50;;;;;;;25.72;60.89;99117.90;2907919;80;21117;-83
2022/05/24 08:29:57;;;;;;;3.08;1.30;;;;;;;25.87;60.60;99117.80;2932810;80;21106;-83
2022/05/24 08:33:58;;;;;;;2.42;1.62;;;;;;;26.21;59.61;99114.91;2950771;80;21034;-83
2022/05/24 08:38:02;;;;;;;1.40;1.17;;;;;;;26.37;58.95;99108.52;2860855;81;21284;-83
2022/05/24 08:42:37;;;;;;;1.60;1.32;;;;;;;26.30;58.94;99117.43;2905606;81;21681;-84
2022/05/24 08:51:34;;;;;;;4.53;1.25;;;;;;;25.86;59.79;99117.52;2920283;80;21018;-82
2022/05/24 08:55:37;;;;;;;3.10;1.55;;;;;;;25.60;60.38;99134.93;2820463;83;21646;-83
2022/05/24 08:59:50;;;;;;;1.87;1.30;;;;;;;25.14;60.68;99136.47;2820548;83;21067;-83
2022/05/24 09:03:51;;;;;;;4.28;1.35;;;;;;;24.77;61.71;99126.97;2821201;84;21146;-84
2022/05/24 09:08:01;;;;;;;3.92;1.50;;;;;;;24.74;62.40;99135.56;2821366;83;21093;-84
2022/05/24 09:12:13;;;;;;;2.90;1.52;;;;;;;24.76;61.71;99132.93;2794351;84;20995;-84
2022/05/24 09:16:17;;;;;;;3.00;1.67;;;;;;;24.88;62.54;99128.76;2821275;83;21036;-84
2022/05/24 09:20:41;;;;;;;2.72;1.27;;;;;;;25.00;62.77;99127.84;2811253;82;21115;-84
2022/05/24 09:24:57;;;;;;;2.77;1.10;;;;;;;25.30;61.71;99126.61;2716855;85;21082;-84
2022/05/24 09:29:14;;;;;;;;;;;;;;;25.72;62.29;99128.80;2756390;85;21678;-84
2022/05/24 09:33:25;;;;;;;3.87;1.98;;;;;;;25.91;60.50;99132.02;2934319;80;20157;-83
2022/05/24 09:37:28;;;;;;;15.53;1.90;;;;;;;26.01;59.73;99138.11;2941137;79;21022;-84
2022/05/24 09:41:29;;;;;;;3.02;1.40;;;;;;;25.88;60.13;99142.59;2962472;79;21055;-84
2022/05/24 09:45:36;;;;;;;1.62;1.27;;;;;;;26.30;61.37;99137.87;2943397;79;21704;-84
2022/05/24 09:49:35;;;;;;;3.37;1.87;;;;;;;26.63;59.69;99129.72;2965492;79;21043;-84
2022/05/24 09:53:51;;;;;;;3.52;1.40;;;;;;;27.12;59.64;99136.91;2963686;80;21256;-84
2022/05/24 09:57:53;;;;;;;2.27;1.50;;;;;;;27.62;58.73;99140.70;2942031;79;21070;-83
2022/05/24 10:01:55;;;;;;;2.55;1.62;;;;;;;27.94;56.28;99143.83;2907670;80;21046;-84
2022/05/24 10:06:14;;;;;;;2.12;1.70;;;;;;;28.12;55.47;99145.78;2926771;79;21089;-84
2022/05/24 10:10:21;;;;;;;3.08;2.05;;;;;;;27.88;54.51;99161.28;2931621;79;21066;-84
2022/05/24 10:14:43;;;;;;;68.10;10.60;;;;;;;27.64;56.30;99158.48;2963905;80;21038;-84
2022/05/24 10:18:59;;;;;;;4.72;2.52;;;;;;;27.51;57.52;99157.06;2963681;79;21058;-83
2022/05/24 10:23:18;;;;;;;4.00;2.10;;;;;;;27.44;56.96;99165.19;2966373;79;21074;-84
2022/05/24 10:27:32;;;;;;;2.77;2.17;;;;;;;27.42;56.64;99169.53;2967546;75;21066;-83
2022/05/24 10:31:59;;;;;;;4.40;3.40;;;;;;;27.15;56.83;99165.03;2943991;79;21094;-84
2022/05/24 10:41:18;;;;;;;5.00;3.37;;;;;;;26.96;58.08;99172.80;2958354;79;20999;-84
2022/05/24 10:45:49;;;;;;;3.42;2.72;;;;;;;26.93;58.06;99174.16;2960102;79;21006;-84
2022/05/24 10:49:44;;;;;;;11.10;5.15;;;;;;;26.77;58.34;99175.90;2960203;79;21105;-84
2022/05/24 10:54:03;;;;;;;6.78;3.30;;;;;;;26.44;58.52;99176.98;2952627;80;21003;-84
2022/05/24 10:58:11;;;;;;;4.70;2.80;;;;;;;26.19;58.46;99179.75;2928564;79;21010;-84
2022/05/24 11:02:35;;;;;;;3.22;2.92;;;;;;;26.05;59.37;99178.75;2940317;79;21054;-84
2022/05/24 11:06:45;;;;;;;3.58;2.62;;;;;;;26.05;59.40;99181.47;2894731;80;21011;-84
2022/05/24 11:10:50;;;;;;;4.20;2.90;;;;;;;26.31;60.34;99179.03;2900723;80;21055;-84
2022/05/24 11:15:12;;;;;;;6.62;2.65;;;;;;;26.70;58.86;99177.20;2925938;80;20978;-83
2022/05/24 11:19:31;;;;;;;3.72;2.83;;;;;;;27.04;58.87;99179.67;2926323;80;21034;-83
2022/05/24 11:23:46;;;;;;;2.92;2.15;;;;;;;27.47;59.40;99179.67;2908976;80;21049;-84
2022/05/24 11:27:58;;;;;;;3.95;2.27;;;;;;;28.06;55.81;99168.98;2898455;80;21050;-84
2022/05/24 11:32:06;;;;;;;2.15;2.05;;;;;;;28.40;57.56;99167.73;2902561;80;21066;-84
2022/05/24 11:36:37;;;;;;;3.08;2.80;;;;;;;28.63;54.53;99171.83;2850607;82;21015;-83
2022/05/24 11:40:56;;;;;;;3.27;2.80;;;;;;;28.44;54.50;99172.92;2863799;82;21031;-84
2022/05/24 11:44:58;;;;;;;2.45;2.25;;;;;;;28.24;55.29;99173.70;2876108;82;21062;-83
2022/05/24 11:49:14;;;;;;;3.45;2.35;;;;;;;28.02;54.14;99174.72;2902563;80;21153;-84
2022/05/24 11:53:32;;;;;;;2.62;2.20;;;;;;;27.78;55.01;99179.81;2864807;78;21515;-84
2022/05/24 11:57:42;;;;;;;5.20;3.22;;;;;;;27.58;55.54;99177.84;2895698;80;21019;-84
2022/05/24 12:01:46;;;;;;;3.85;3.05;;;;;;;27.57;58.02;99177.56;2924752;80;21060;-84
2022/05/24 12:10:36;;;;;;;8.00;2.45;;;;;;;27.84;57.29;99184.23;2913561;81;20980;-84
2022/05/24 12:14:39;;;;;;;3.02;2.55;;;;;;;28.41;58.36;99180.84;2881100;81;21023;-84
2022/05/24 12:18:46;;;;;;;2.30;2.10;;;;;;;28.78;53.83;99175.66;2839990;82;21094;-84
2022/05/24 12:23:13;;;;;;;3.35;2.58;;;;;;;28.90;54.38;99176.23;2898742;81;21035;-84
2022/05/24 12:27:47;;;;;;;3.00;2.37;;;;;;;28.87;54.44;99174.59;2870018;82;21063;-84
2022/05/24 12:31:50;;;;;;;2.43;2.23;;;;;;;28.76;53.54;99172.38;2876613;81;21093;-84
2022/05/24 12:35:57;;;;;;;3.90;3.17;;;;;;;28.71;54.14;99171.02;2888330;82;21054;-84
2022/05/24 12:40:13;;;;;;;4.42;2.50;;;;;;;28.61;53.93;99174.02;2885702;81;21279;-84
2022/05/24 12:44:20;;;;;;;2.15;1.95;;;;;;;28.43;54.10;99174.55;2866333;82;20998;-84
2022/05/24 12:48:37;;;;;;;2.42;2.20;;;;;;;28.15;54.48;99175.30;2899196;81;20978;-84
2022/05/24 12:52:41;;;;;;;3.15;2.42;;;;;;;27.84;54.88;99180.66;2898673;82;21019;-84
2022/05/24 12:56:56;;;;;;;3.17;2.58;;;;;;;27.60;55.24;99181.12;2883784;82;20991;-84
2022/05/24 13:01:24;;;;;;;3.67;2.87;;;;;;;27.44;55.57;99181.02;2906896;80;21004;-84
2022/05/24 13:05:30;;;;;;;3.00;2.67;;;;;;;27.45;56.13;99184.58;2888855;82;21114;-84
2022/05/24 13:09:34;;;;;;;4.35;2.50;;;;;;;27.60;56.82;99183.85;2856597;80;21019;-83
2022/05/24 13:13:34;;;;;;;5.00;2.35;;;;;;;27.80;56.49;99181.20;2903558;82;21587;-84
2022/05/24 13:17:43;;;;;;;2.00;1.90;;;;;;;28.02;55.81;99188.94;2910898;78;21003;-86
2022/05/24 13:21:44;;;;;;;5.80;2.10;;;;;;;28.20;55.64;99186.27;2892837;81;21084;-87
2022/05/24 13:25:54;;;;;;;2.40;2.15;;;;;;;28.50;54.65;99192.89;2879873;81;21095;-86
2022/05/24 13:34:26;;;;;;;10.40;3.95;;;;;;;28.99;52.46;99192.09;2920243;80;21570;-91
2022/05/24 13:38:28;;;;;;;1.72;1.57;;;;;;;28.92;52.12;99189.09;2850403;82;21062;-84
2022/05/24 13:42:31;;;;;;;3.37;2.20;;;;;;;28.84;53.00;99194.30;2912131;80;21950;-86
2022/05/24 13:46:56;;;;;;;27.85;6.58;;;;;;;28.48;52.70;99201.36;2909450;80;21071;-88
2022/05/24 13:51:06;;;;;;;7.85;2.95;;;;;;;28.06;53.69;99202.34;2848654;81;21111;-88
2022/05/24 13:55:30;;;;;;;3.45;1.92;;;;;;;27.61;54.90;99215.53;2845498;81;21518;-89
2022/05/24 13:59:31;;;;;;;8.30;2.50;;;;;;;27.27;55.74;99218.58;2855502;82;21022;-85
2022/05/24 14:03:44;;;;;;;9.38;3.10;;;;;;;26.87;57.13;99251.57;2863706;82;21158;-84
2022/05/24 14:07:46;;;;;;;11.35;5.10;;;;;;;25.63;66.07;99269.19;2829547;82;21051;-84
2022/05/24 14:11:54;;;;;;;14.18;4.95;;;;;;;24.27;73.42;99285.60;2870722;82;21064;-86
2022/05/24 14:15:58;;;;;;;9.03;4.15;;;;;;;22.54;83.22;99301.29;2845519;82;21021;-85
2022/05/24 14:20:01;;;;;;;4.08;2.27;;;;;;;21.27;87.27;99281.24;2788508;84;21560;-82
2022/05/24 14:24:03;;;;;;;7.28;2.45;;;;;;;20.66;87.17;99303.27;2862036;80;21031;-80
2022/05/24 14:28:05;;;;;;;9.33;3.37;;;;;;;20.46;89.81;99320.10;2867274;80;21015;-83
2022/05/24 14:32:06;;;;;;;3.55;2.08;;;;;;;20.35;90.72;99321.06;2869015;81;21081;-84
2022/05/24 14:36:08;;;;;;;1.37;1.17;;;;;;;20.08;90.36;99324.38;2867322;81;21006;-85
2022/05/24 14:40:12;;;;;;;4.70;1.87;;;;;;;20.02;89.41;99342.23;2928849;80;21070;-84
2022/05/24 14:44:30;;;;;;;1.27;1.12;;;;;;;20.06;90.68;99375.89;2946083;80;20995;-85
2022/05/24 14:48:31;;;;;;;2.12;1.02;;;;;;;20.09;88.83;99393.01;2947415;79;21971;-86
2022/05/24 14:52:35;;;;;;;3.00;1.02;;;;;;;20.11;88.65;99404.42;2934555;79;20995;-84
2022/05/24 14:56:38;;;;;;;1.12;0.75;;;;;;;20.14;88.59;99400.98;2967304;80;21054;-85
2022/05/24 15:00:39;;;;;;;2.62;0.72;;;;;;;20.24;87.46;99398.67;2963601;79;21070;-86
2022/05/24 15:04:42;;;;;;;5.47;1.40;;;;;;;20.36;86.28;99396.17;2860465;81;21386;-85
2022/05/24 15:17:34;;;;;;;3.22;1.25;;;;;;;20.38;86.71;99385.98;2914474;79;21077;-85
2022/05/24 15:21:38;;;;;;;1.75;1.30;;;;;;;20.37;86.23;99387.03;2870064;81;20981;-85
2022/05/24 15:25:56;;;;;;;1.10;1.00;;;;;;;20.40;86.55;99391.46;2923609;80;21058;-85
2022/05/24 15:29:58;;;;;;;3.42;2.42;;;;;;;20.45;86.66;99392.72;2878094;81;21054;-86
2022/05/24 15:34:02;;;;;;;5.85;4.10;;;;;;;20.46;87.37;99390.33;2922920;81;21014;-84
2022/05/24 15:38:05;;;;;;;2.08;1.65;;;;;;;20.48;87.19;99385.53;2893993;80;21129;-86
2022/05/24 15:42:10;;;;;;;1.77;1.65;;;;;;;20.55;87.92;99379.07;2868217;81;21616;-88
2022/05/24 15:46:15;;;;;;;8.38;2.27;;;;;;;20.66;87.51;99376.72;2918959;80;21054;-86
2022/05/24 15:50:18;;;;;;;7.00;3.08;;;;;;;20.61;87.45;99377.90;2906357;80;21459;-86
2022/05/24 15:54:20;;;;;;;8.65;5.78;;;;;;;20.61;87.93;99377.90;2921606;80;20995;-86
2022/05/24 15:58:21;;;;;;;14.18;9.08;;;;;;;20.62;88.80;99375.50;2896973;80;21003;-84
2022/05/24 16:02:24;;;;;;;6.50;5.25;;;;;;;20.63;90.05;99373.11;2912403;80;21003;-87
2022/05/24 16:10:44;;;;;;;2.50;2.30;;;;;;;20.68;91.53;99374.13;2712179;84;21058;-85
2022/05/24 16:14:46;;;;;;;5.58;2.75;;;;;;;20.75;91.40;99377.31;2764016;84;21046;-84
2022/05/24 16:18:48;;;;;;;3.05;2.20;;;;;;;20.89;90.97;99384.86;2753993;85;21018;-84
2022/05/24 16:22:50;;;;;;;5.33;2.42;;;;;;;20.92;91.22;99387.97;2801377;82;21043;-87
2022/05/24 16:26:52;;;;;;;4.78;2.55;;;;;;;20.98;91.78;99384.92;2765436;84;21078;-84
2022/05/24 16:30:54;;;;;;;3.83;2.87;;;;;;;21.08;91.83;99387.16;2824277;82;21075;-85
2022/05/24 16:34:56;;;;;;;3.02;2.30;;;;;;;21.16;92.22;99391.48;2787582;83;20972;-85
2022/05/24 16:38:59;;;;;;;5.30;2.98;;;;;;;21.27;91.40;99396.17;2829613;82;21066;-85
2022/05/24 16:43:00;;;;;;;4.25;2.77;;;;;;;21.30;91.08;99403.04;2780092;82;21031;-83
2022/05/24 16:47:02;;;;;;;3.95;2.80;;;;;;;21.24;91.44;99401.52;2963560;80;21030;-83
2022/05/24 16:51:07;;;;;;;3.05;2.05;;;;;;;21.24;91.58;99394.76;2941523;78;20998;-85
2022/05/24 16:59:29;;;;;;;5.12;2.00;;;;;;;21.21;89.72;99397.88;2945721;80;21000;-81
2022/05/24 17:03:30;;;;;;;2.75;2.37;;;;;;;21.17;89.20;99402.60;2963889;79;21042;-82
2022/05/24 17:07:32;;;;;;;2.45;2.08;;;;;;;21.10;89.47;99405.34;2961507;80;20983;-84
2022/05/24 17:11:33;;;;;;;3.62;2.62;;;;;;;21.03;89.80;99411.28;2930099;80;21065;-84
2022/05/24 17:15:35;;;;;;;4.00;2.42;;;;;;;21.07;90.14;99431.47;2950608;80;21014;-84
2022/05/24 17:19:37;;;;;;;2.45;1.98;;;;;;;21.14;89.58;99431.44;2942551;80;21527;-84
2022/05/24 17:23:40;;;;;;;2.58;2.35;;;;;;;21.08;89.84;99429.06;2956072;80;21010;-84
2022/05/24 17:27:42;;;;;;;2.62;1.98;;;;;;;20.97;89.14;99436.80;2951859;79;21077;-84
2022/05/24 17:31:43;;;;;;;4.25;1.98;;;;;;;20.98;89.25;99445.21;2964871;78;21120;-83
2022/05/24 17:35:45;;;;;;;2.92;1.92;;;;;;;21.01;88.72;99451.23;2965613;79;21030;-83
2022/05/24 17:39:47;;;;;;;2.22;2.02;;;;;;;21.01;87.98;99457.48;2958081;77;21007;-84
2022/05/24 17:43:49;;;;;;;3.00;1.45;;;;;;;20.81;88.07;99462.95;2957952;80;21070;-84
2022/05/24 17:47:52;;;;;;;3.02;2.17;;;;;;;20.63;88.70;99473.88;2946676;80;21450;-84
2022/05/24 17:51:56;;;;;;;3.95;2.85;;;;;;;20.46;89.87;99474.05;2963402;80;21476;-84
2022/05/24 17:55:57;;;;;;;4.45;3.00;;;;;;;20.35;91.40;99480.39;2964102;79;21053;-83
2022/05/24 17:59:58;;;;;;;4.30;2.37;;;;;;;20.22;92.94;99481.25;2930395;80;21484;-83
2022/05/24 18:04:03;;;;;;;4.85;3.12;;;;;;;20.15;93.26;99483.64;2961206;80;20995;-83
2022/05/24 18:08:06;;;;;;;4.15;3.22;;;;;;;20.20;93.31;99486.53;2936361;78;20987;-84
2022/05/24 18:12:09;;;;;;;4.12;2.45;;;;;;;20.19;93.42;99495.67;2964843;78;21005;-84
2022/05/24 18:16:11;;;;;;;4.22;2.75;;;;;;;20.30;93.24;99493.70;2960415;79;21030;-84
2022/05/24 18:20:12;;;;;;;2.70;2.27;;;;;;;20.36;92.47;99499.61;2958116;78;21046;-84
2022/05/24 18:24:19;;;;;;;2.65;2.25;;;;;;;20.40;92.05;99506.78;2961785;78;21082;-85
2022/05/24 18:33:08;;;;;;;6.28;3.25;;;;;;;20.37;91.29;99515.30;2965775;76;21038;-83
2022/05/24 18:37:14;;;;;;;3.05;2.58;;;;;;;20.31;90.92;99514.27;2931147;80;20994;-84
2022/05/24 18:41:16;;;;;;;2.62;2.40;;;;;;;20.10;90.94;99526.94;2923664;75;68110;-86
2022/05/24 18:45:17;;;;;;;3.17;2.85;;;;;;;20.03;91.66;99535.53;2774340;83;21025;-87
2022/05/24 18:49:18;;;;;;;3.35;3.05;;;;;;;20.04;92.31;99537.20;2755753;83;21010;-88
2022/05/24 18:53:19;;;;;;;3.58;2.83;;;;;;;20.06;92.90;99537.84;2796825;83;20976;-89
2022/05/24 18:57:22;;;;;;;4.00;2.40;;;;;;;20.12;92.42;99539.71;2807430;83;21024;-89
2022/05/24 19:01:24;;;;;;;3.27;2.35;;;;;;;20.20;91.31;99540.53;2810449;83;20975;-89
2022/05/24 19:05:26;;;;;;;2.50;2.25;;;;;;;20.25;91.13;99551.56;2792446;83;21117;-89
2022/05/24 19:09:27;;;;;;;5.80;3.20;;;;;;;20.23;90.39;99559.86;2753250;82;21541;-91
2022/05/24 19:13:28;;;;;;;3.62;3.27;;;;;;;20.19;89.94;99557.77;2790567;83;21050;-89
2022/05/24 19:17:34;;;;;;;3.62;2.92;;;;;;;20.16;90.66;99558.19;2794428;83;21042;-88
2022/05/24 19:21:38;;;;;;;2.47;2.25;;;;;;;20.19;90.23;99569.92;2791869;83;21386;-89
2022/05/24 19:25:41;;;;;;;7.87;2.98;;;;;;;20.26;90.09;99572.13;2820589;83;21030;-89
2022/05/24 19:29:45;;;;;;;3.60;2.92;;;;;;;20.28;89.52;99573.25;2842385;82;21041;-93
2022/05/24 19:33:47;;;;;;;6.17;5.50;;;;;;;20.26;88.88;99582.92;2842835;82;21057;-88
2022/05/24 19:37:48;;;;;;;7.12;4.30;;;;;;;20.25;88.86;99583.97;2782172;83;21025;-88
2022/05/24 19:41:49;;;;;;;4.60;3.05;;;;;;;20.20;88.96;99585.92;2781269;83;21007;-88
2022/05/24 19:45:53;;;;;;;7.30;3.35;;;;;;;20.19;88.58;99599.12;2814365;83;21086;-88
2022/05/24 19:49:54;;;;;;;4.42;3.25;;;;;;;20.17;88.10;99607.09;2788341;83;20998;-89
2022/05/24 19:53:55;;;;;;;7.80;3.70;;;;;;;20.09;87.68;99618.42;2786956;83;20998;-89
2022/05/24 19:57:56;;;;;;;5.42;3.65;;;;;;;20.03;87.29;99619.22;2826586;82;21049;-89
2022/05/24 20:01:58;;;;;;;16.25;3.72;;;;;;;20.00;87.33;99626.38;2818980;82;21041;-89
2022/05/24 20:05:59;;;;;;;3.72;2.72;;;;;;;20.00;86.99;99636.36;2791643;83;21018;-89
2022/05/24 20:10:01;;;;;;;6.28;3.12;;;;;;;19.93;86.51;99641.20;2849437;82;21071;-89
2022/05/24 20:14:03;;;;;;;6.08;3.40;;;;;;;19.81;86.26;99647.67;2780245;83;21113;-89
2022/05/24 20:18:05;;;;;;;3.27;3.02;;;;;;;19.60;87.28;99651.34;2817649;83;21402;-88
2022/05/24 20:22:07;;;;;;;8.40;3.98;;;;;;;19.48;88.13;99660.52;2808041;83;21105;-90